Webcam more information Webcam


altri nostri siti meteo:

ViterbometeoSito sul meteo

Pomeziameteo 1Sito sul meteo

Pomeziameteo DashboardSito sul meteo

Caput FrigorisSito sul meteo

BarcellonameteoSito sul meteo

MeteoipassiSito sul meteo

TortoretometeolidoSito sul meteo

CastelnuovovomanometeoSito sul meteo

MeteogonzagaSito sul meteo

MeteonetworkInvio dai a Meteonetwork



Nessuna attenzione particolare richiesta.    Non ci sono allerte meteo

Report METAR

   
LIRE - Pratica di mare
Dati ricevuti: 20-04-2019 17:55
Sereno  
Sereno  
   Vento: SW 7.4 km/h
Vento: SW 7.4 km/h
Temperatura: 18°C
P.to Rugiada: 5°C
Umidita: 43%
Barometro: 1022 hPa
Visibilita: oltre 10 km
dettagli cloud: Sereno
LIRE 201555Z 23004KT CAVOK 18/05 Q1022 RMK BKN BKN200 VIS MIN 9999 WIND THR13 24003KT WIND THR31 /////KT BLU
LIRF - Fiumicino
Dati ricevuti: 20-04-2019 18:20
Sereno  
Sereno  
   Vento: West 7.4 km/h
Vento: West 7.4 km/h
Temperatura: 18°C
P.to Rugiada: 9°C
Umidita: 56%
Barometro: 1022 hPa
Visibilita: oltre 10 km
dettagli cloud: Sereno
LIRF 201620Z 28004KT CAVOK 18/09 Q1022 NOSIG
LIRA - Ciampino
Dati ricevuti: 20-04-2019 18:20
Sereno  
Sereno  
   Vento: S 9.3 km/h
Vento: S 9.3 km/h
Temperatura: 19°C
P.to Rugiada: 3°C
Umidita: 35%
Barometro: 1022 hPa
Visibilita: oltre 10 km
dettagli cloud: Sereno
LIRA 201620Z 21005KT CAVOK 19/03 Q1022
LIRL - Latina
Dati ricevuti: 19-04-2019 19:55
DATI Obsoleti
Sereno  
Sereno  
   Vento: W 9.3 km/h
Vento: W 9.3 km/h
Temperatura: 18°C
P.to Rugiada: 3°C
Umidita: 37%
Barometro: 1025 hPa
Visibilita: oltre 10 km
dettagli cloud: Sereno
LIRL 191755Z 30005KT CAVOK 18/03 Q1025
  

Script sviluppato da  Saratoga-weather.org Adattato per il modello da  Weerstation Leuven

Potete trovare le nostre info meteo anche a:

Weather Underground

AWEKAS

HAMweather, WeatherForYou, PWS Weather

Strumentazione usata:

Stazione meteo
Davis VP2

Programma gestore dati meteo
WVIEW

Server per i dati meteo
WDS-5

Davis VP2

WVIEW

WDS-5